Tovey, IL (62570)

12:35 PM CDT on March 30, 2017 (GMT -0500)
Dorothy on Davis Rd | | Change Station
Active Advisory: Severe Thunderstorm Watch

Elev 604 ft 39.60 °N, 89.56 °W | Updated 25 seconds ago

Mostly Cloudy
Mostly Cloudy
73.2 °F
Feels Like 75 °F
N
2.7
Wind Variable Wind from SE

Today
High -- | Low -- °F
--% Chance of Precip.
Yesterday
High -- | Low -- °F
Precip. -- in
Pressure 29.54 in
Visibility 10.0 miles
Clouds Scattered Clouds 700 ft
Scattered Clouds 5500 ft
Mostly Cloudy 11000 ft
Heat Index 75 °F
Dew Point 63 °F
Humidity 71%
Rainfall 0.54 in
Snow Depth Not available.
6:44 AM 7:20 PM
Waxing Crescent, 9% visible
METAR KTAZ 301715Z AUTO 21008KT 10SM SCT007 SCT055 BKN110 18/16 A2954 RMK AO2 LTG DSNT SW T01800164
Pressure 29.54 in
Visibility 10.0 miles
Clouds Scattered Clouds 700 ft
Scattered Clouds 5500 ft
Mostly Cloudy 11000 ft
Heat Index 75 °F
Dew Point 63 °F
Humidity 71%
Rainfall 0.54 in
Snow Depth Not available.
6:44 AM 7:20 PM
Waxing Crescent, 9% visible
METAR KTAZ 301715Z AUTO 21008KT 10SM SCT007 SCT055 BKN110 18/16 A2954 RMK AO2 LTG DSNT SW T01800164

Get Your Daily Forecast Email!

Thanks for signing up!

Be on the lookout for a verification email in your inbox.

You'll start receiving severe weather alerts in your inbox..

×

10-Day Weather Forecast

Almanac

Astronomy

Mar. 30, 2017 Rise Set
Actual Time
Civil Twilight
Nautical Twilight
Astronomical Twilight
Moon
Length of Visible Light
Length of Day
Tomorrow will be .
, % of the Moon is Illuminated

Today's Extremes

State Highs State Lows

Community

WunderPhotos

Upload Photos

1,962,540 photos uploaded!

WunderBlog® & News

Nearby

Air Quality

  Air Quality AQ Index Pollutant
Not available.

Snow Depth

Station Depth Elevation

Earthquake Activity

City Distance Mag. Time & Date
Minimum magnitude displayed is 2.5.

Earthquake Activity

City Distance Mag. Time & Date
Minimum magnitude displayed is 2.5.

Coastal Water Temperatures

Place Temperature

Stations

Nearby Weather Stations

Station Location Temp. Windchill Dew Point Humidity Wind Precip. Elev Updated Type
                   

Watches & Warnings

Severe Thunderstorm Watch
Issued: 12:30 PM CDT Mar. 30, 2017 – National Weather Service

Severe Thunderstorm Watch 103 is in effect until 800 PM CDT
for the following locations


IL
. Illinois counties included are

Alexander Bond Cass
Champaign Christian Clark
Clay Clinton Coles
Crawford Cumberland De Witt
Douglas Edgar Edwards
Effingham Fayette Franklin
Gallatin Greene Hamilton
Hardin Jackson Jasper
Jefferson Jersey Johnson
Lawrence Logan Macon
Macoupin Madison Marion
Massac Menard Monroe
Montgomery Morgan Moultrie
Perry Piatt Pope
Pulaski Randolph Richland
Saline Sangamon Scott
Shelby St. Clair Union
Vermilion Wabash Washington
Wayne white Williamson